KTGI

Tangier Island Airport

Tangier, Virginia, USA
METAR KTGI 191857Z AUTO 33017G22KT 10SM CLR 28/22 A2990 RMK AO1
Observed Flight Rules
Sep-19 @ 18:57 UTC (24 minutes ago) Visual Flight Rules
Wind Visibility Clouds
330° at 17 knots
 Gusting to 22 knots
10 miles
  • Clear skies
Temperatures Readings
Current 28°C / 82°F
Dewpoint 22°C / 72°F
Humidity 70%
Altimeter 29.9" Hg
Pressure 1013 hPa
Elevation 2
METAR KTGI 191857Z AUTO 33017G22KT 10SM CLR 28/22 A2990 RMK AO1
Observed Flight Rules
Sep-19 @ 18:57 UTC
(24 minutes ago)
VFR
Wind Visibility
330° at 17 knots
 Gusting to 22 knots
10 miles
Clouds
  • Clear skies
Temperature Dewpoint
28°C / 82°F 22°C / 72°F
Humidity Altimeter Pressure
70% 29.9" Hg 1013 hPa